Time;durP1;ratioP1;P1;durP2;ratioP2;P2;SDS_P1;SDS_P2;PMS_P1;PMS_P2;Temp;Humidity;BMP_temperature;BMP_pressure;BME280_temperature;BME280_humidity;BME280_pressure;Samples;Min_cycle;Max_cycle;Signal;HPM_P1;HPM_P2
2023/09/01 00:00:12;;;;;;;1.88;0.95;;;13.40;99.90;;;;;;5058371;28;20631;-64
2023/09/01 00:02:41;;;;;;;1.27;1.17;;;13.40;99.90;;;;;;5051171;28;20040;-64
2023/09/01 00:05:10;;;;;;;1.70;1.20;;;13.30;99.90;;;;;;5057890;28;20104;-64
2023/09/01 00:07:35;;;;;;;1.63;1.35;;;13.30;99.90;;;;;;5054391;28;20104;-64
2023/09/01 00:10:01;;;;;;;3.58;1.25;;;13.30;99.90;;;;;;5057104;28;20566;-64
2023/09/01 00:12:27;;;;;;;1.35;0.93;;;13.30;99.90;;;;;;5040538;28;20032;-64
2023/09/01 00:14:53;;;;;;;1.08;1.02;;;13.30;99.90;;;;;;5055529;28;20032;-64
2023/09/01 00:17:18;;;;;;;1.75;1.40;;;13.20;99.90;;;;;;5055975;28;20025;-64
2023/09/01 00:19:44;;;;;;;1.85;1.40;;;13.20;99.90;;;;;;5055353;28;20037;-64
2023/09/01 00:22:10;;;;;;;1.45;1.13;;;13.20;99.90;;;;;;5055638;28;20117;-64
2023/09/01 00:24:37;;;;;;;3.75;1.67;;;13.20;99.90;;;;;;5056089;28;20634;-64
2023/09/01 00:27:03;;;;;;;1.50;1.05;;;13.20;99.90;;;;;;5053807;28;20081;-64
2023/09/01 00:29:33;;;;;;;1.73;1.48;;;13.10;99.90;;;;;;5043080;28;20039;-64
2023/09/01 00:32:01;;;;;;;1.50;1.30;;;13.10;99.90;;;;;;5054209;28;20035;-64
2023/09/01 00:34:30;;;;;;;4.78;1.33;;;13.10;99.90;;;;;;5051156;28;20040;-64
2023/09/01 00:36:56;;;;;;;2.10;1.13;;;13.10;99.90;;;;;;5054446;28;20044;-64
2023/09/01 00:39:22;;;;;;;1.50;1.40;;;13.10;99.90;;;;;;5057242;28;20787;-64
2023/09/01 00:41:48;;;;;;;2.38;1.48;;;13.10;99.90;;;;;;5053927;28;20024;-64
2023/09/01 00:44:14;;;;;;;2.55;1.30;;;13.10;99.90;;;;;;5056729;28;20025;-64
2023/09/01 00:46:46;;;;;;;1.48;1.38;;;13.00;99.90;;;;;;5037173;28;20040;-64
2023/09/01 00:49:12;;;;;;;1.40;1.30;;;13.00;99.90;;;;;;5054890;28;20455;-64
2023/09/01 00:51:39;;;;;;;1.80;1.60;;;13.00;99.90;;;;;;5053955;28;20071;-64
2023/09/01 00:54:05;;;;;;;1.58;1.20;;;13.00;99.90;;;;;;5054730;28;20043;-64
2023/09/01 00:56:32;;;;;;;1.95;1.27;;;13.00;99.90;;;;;;5055208;28;20037;-64
2023/09/01 00:58:58;;;;;;;2.55;1.50;;;13.00;99.90;;;;;;5054904;28;20044;-64
2023/09/01 01:01:23;;;;;;;2.08;1.40;;;13.00;99.90;;;;;;5039647;28;20388;-64
2023/09/01 01:03:52;;;;;;;1.92;1.30;;;12.90;99.90;;;;;;5041195;28;20036;-64
2023/09/01 01:06:23;;;;;;;1.52;1.30;;;12.90;99.90;;;;;;5035478;28;20028;-64
2023/09/01 01:08:58;;;;;;;2.28;1.40;;;12.90;99.90;;;;;;5053319;28;20033;-64
2023/09/01 01:11:37;;;;;;;2.85;1.48;;;12.90;99.90;;;;;;5036909;28;20032;-64
2023/09/01 01:14:11;;;;;;;2.45;1.42;;;12.90;99.90;;;;;;5054431;28;20032;-63
2023/09/01 01:16:37;;;;;;;2.92;1.80;;;12.90;99.90;;;;;;5054391;28;20555;-64
2023/09/01 01:19:22;;;;;;;3.70;1.52;;;12.90;99.90;;;;;;5050356;28;20047;-64
2023/09/01 01:21:52;;;;;;;1.83;1.73;;;12.90;99.90;;;;;;5020787;28;20029;-64
2023/09/01 01:24:18;;;;;;;5.35;1.80;;;12.90;99.90;;;;;;5055665;28;20451;-64
2023/09/01 01:26:44;;;;;;;3.08;2.08;;;12.90;99.90;;;;;;5037559;28;20112;-63
2023/09/01 01:29:10;;;;;;;1.95;1.60;;;12.90;99.90;;;;;;5043748;28;20048;-64
2023/09/01 01:31:36;;;;;;;2.45;1.60;;;12.90;99.90;;;;;;5054010;28;20025;-64
2023/09/01 01:34:17;;;;;;;1.38;1.27;;;12.90;99.90;;;;;;5033789;28;20075;-64
2023/09/01 01:37:00;;;;;;;1.90;1.40;;;12.80;99.90;;;;;;5055177;28;20380;-64
2023/09/01 01:39:28;;;;;;;2.70;1.80;;;12.80;99.90;;;;;;5053937;28;20024;-64
2023/09/01 01:42:13;;;;;;;2.42;1.70;;;12.80;99.90;;;;;;5054764;28;20052;-64
2023/09/01 01:44:43;;;;;;;1.97;1.70;;;12.80;99.90;;;;;;5050388;28;20111;-64
2023/09/01 01:47:11;;;;;;;2.25;1.52;;;12.80;99.90;;;;;;5056521;28;20305;-64
2023/09/01 01:49:37;;;;;;;2.00;1.77;;;12.80;99.90;;;;;;5053010;28;20623;-64
2023/09/01 01:52:03;;;;;;;2.00;1.80;;;12.80;99.90;;;;;;5054668;28;20059;-64
2023/09/01 01:54:30;;;;;;;2.55;2.00;;;12.80;99.90;;;;;;5040355;28;20480;-64
2023/09/01 01:56:56;;;;;;;2.10;1.90;;;12.80;99.90;;;;;;5039042;28;20041;-64
2023/09/01 01:59:22;;;;;;;3.78;2.10;;;12.80;99.90;;;;;;5041650;28;20033;-64
2023/09/01 02:01:49;;;;;;;2.15;1.95;;;12.70;99.90;;;;;;5036460;28;20041;-64
2023/09/01 02:04:15;;;;;;;2.25;1.85;;;12.70;99.90;;;;;;5040226;28;20059;-64
2023/09/01 02:06:40;;;;;;;1.80;1.65;;;12.70;99.90;;;;;;5037922;28;20025;-64
2023/09/01 02:09:09;;;;;;;3.67;2.17;;;12.70;99.90;;;;;;5053445;28;20540;-64
2023/09/01 02:11:39;;;;;;;4.50;2.40;;;12.70;99.90;;;;;;5054391;28;20127;-64
2023/09/01 02:14:08;;;;;;;3.65;2.08;;;12.70;99.90;;;;;;5035164;28;20140;-64
2023/09/01 02:16:33;;;;;;;3.92;2.20;;;12.70;99.90;;;;;;5054340;28;20060;-64
2023/09/01 02:18:59;;;;;;;2.20;1.83;;;12.70;99.90;;;;;;5038128;28;20091;-64
2023/09/01 02:21:25;;;;;;;3.13;2.10;;;12.70;99.90;;;;;;5055456;28;20042;-64
2023/09/01 02:23:51;;;;;;;3.10;1.75;;;12.60;99.90;;;;;;5051484;28;20499;-64
2023/09/01 02:26:20;;;;;;;2.97;2.13;;;12.60;99.90;;;;;;5055708;28;20480;-64
2023/09/01 02:28:47;;;;;;;2.85;2.20;;;12.60;99.90;;;;;;5052076;28;20044;-64
2023/09/01 02:31:14;;;;;;;3.40;2.67;;;12.60;99.90;;;;;;5041884;28;20028;-64
2023/09/01 02:33:41;;;;;;;2.63;2.13;;;12.60;99.90;;;;;;5048564;28;20113;-64
2023/09/01 02:36:34;;;;;;;2.67;2.10;;;12.60;99.90;;;;;;5054517;28;20033;-64
2023/09/01 02:39:00;;;;;;;3.15;2.33;;;12.60;99.90;;;;;;5038119;28;20815;-64
2023/09/01 02:41:28;;;;;;;6.93;2.50;;;12.60;99.90;;;;;;5040523;28;20115;-64
2023/09/01 02:43:54;;;;;;;4.18;2.60;;;12.50;99.90;;;;;;5051147;28;20717;-65
2023/09/01 02:46:20;;;;;;;3.92;2.63;;;12.60;99.90;;;;;;5055562;28;20071;-64
2023/09/01 02:48:46;;;;;;;4.68;2.38;;;12.50;99.90;;;;;;5052514;28;20049;-65
2023/09/01 02:51:12;;;;;;;3.63;2.42;;;12.60;99.90;;;;;;5042357;28;20025;-65
2023/09/01 02:53:38;;;;;;;3.90;2.40;;;12.60;99.90;;;;;;5052284;28;20439;-65
2023/09/01 02:56:05;;;;;;;2.60;2.40;;;12.50;99.90;;;;;;5040890;28;20029;-65
2023/09/01 02:58:31;;;;;;;3.22;2.42;;;12.50;99.90;;;;;;5052534;28;20158;-65
2023/09/01 03:00:57;;;;;;;2.45;2.17;;;12.60;99.90;;;;;;5051730;28;20037;-65
2023/09/01 03:03:24;;;;;;;3.42;2.53;;;12.50;99.90;;;;;;5038022;28;20520;-64
2023/09/01 03:05:51;;;;;;;4.03;2.90;;;12.50;99.90;;;;;;5056086;28;20048;-65
2023/09/01 03:08:23;;;;;;;3.58;2.72;;;12.50;99.90;;;;;;5058954;28;20330;-65
2023/09/01 03:10:49;;;;;;;3.35;2.50;;;12.50;99.90;;;;;;5055864;28;20382;-65
2023/09/01 03:13:16;;;;;;;2.60;2.38;;;12.50;99.90;;;;;;5054672;28;20940;-65
2023/09/01 03:15:42;;;;;;;5.18;2.83;;;12.50;99.90;;;;;;5055141;28;20051;-65
2023/09/01 03:18:10;;;;;;;3.40;2.75;;;12.50;99.90;;;;;;5043005;28;20032;-65
2023/09/01 03:20:38;;;;;;;3.08;2.78;;;12.50;99.90;;;;;;5043303;28;20039;-65
2023/09/01 03:23:04;;;;;;;4.00;2.72;;;12.50;99.90;;;;;;5039833;28;20098;-65
2023/09/01 03:25:30;;;;;;;5.07;3.15;;;12.40;99.90;;;;;;5043258;28;20031;-65
2023/09/01 03:27:56;;;;;;;2.50;2.30;;;12.40;99.90;;;;;;5042311;28;20033;-65
2023/09/01 03:30:23;;;;;;;2.88;2.53;;;12.40;99.90;;;;;;5042210;28;20400;-65
2023/09/01 03:32:49;;;;;;;3.13;2.80;;;12.40;99.90;;;;;;5053722;28;20036;-65
2023/09/01 03:35:15;;;;;;;2.47;2.28;;;12.40;99.90;;;;;;5054330;28;20036;-65
2023/09/01 03:37:41;;;;;;;5.60;3.00;;;12.40;99.90;;;;;;5041237;28;20052;-65
2023/09/01 03:40:09;;;;;;;2.60;2.30;;;12.40;99.90;;;;;;5052877;28;20040;-65
2023/09/01 03:42:35;;;;;;;3.28;2.58;;;12.40;99.90;;;;;;5041831;28;20561;-65
2023/09/01 03:45:02;;;;;;;3.88;2.97;;;12.40;99.90;;;;;;5041248;28;20144;-65
2023/09/01 03:47:28;;;;;;;3.33;2.75;;;12.40;99.90;;;;;;5058017;28;20024;-64
2023/09/01 03:49:53;;;;;;;3.28;2.90;;;12.40;99.90;;;;;;5054847;28;20036;-65
2023/09/01 03:52:19;;;;;;;3.75;2.67;;;12.40;99.90;;;;;;5043779;28;20423;-65
2023/09/01 03:54:45;;;;;;;2.25;2.05;;;12.40;99.90;;;;;;5054993;28;20098;-65
2023/09/01 03:57:11;;;;;;;2.90;2.63;;;12.30;99.90;;;;;;5057373;28;20506;-65
2023/09/01 03:59:37;;;;;;;3.90;2.40;;;12.30;99.90;;;;;;5041202;28;20220;-65
2023/09/01 04:02:04;;;;;;;3.58;2.90;;;12.30;99.90;;;;;;5023843;28;20514;-65
2023/09/01 04:04:30;;;;;;;4.18;2.92;;;12.30;99.90;;;;;;5041631;28;20170;-65
2023/09/01 04:06:56;;;;;;;2.60;2.10;;;12.30;99.90;;;;;;5055746;28;20160;-65
2023/09/01 04:09:23;;;;;;;2.80;2.45;;;12.30;99.90;;;;;;5039243;28;20658;-65
2023/09/01 04:11:48;;;;;;;3.38;2.45;;;12.30;99.90;;;;;;5042246;28;20132;-65
2023/09/01 04:14:14;;;;;;;2.78;2.42;;;12.20;99.90;;;;;;5056838;28;20127;-65
2023/09/01 04:16:40;;;;;;;3.88;2.17;;;12.20;99.90;;;;;;5042069;28;20032;-65
2023/09/01 04:19:06;;;;;;;2.85;2.63;;;12.20;99.90;;;;;;5041402;28;20135;-65
2023/09/01 04:21:33;;;;;;;4.47;2.85;;;12.30;99.90;;;;;;5026540;28;20040;-65
2023/09/01 04:23:58;;;;;;;3.55;2.70;;;12.20;99.90;;;;;;5040883;28;20051;-65
2023/09/01 04:26:25;;;;;;;4.22;2.45;;;12.20;99.90;;;;;;5042933;28;20494;-65
2023/09/01 04:28:51;;;;;;;4.82;3.13;;;12.20;99.90;;;;;;5055886;28;20033;-64
2023/09/01 04:31:26;;;;;;;2.90;2.25;;;12.30;99.90;;;;;;5042846;28;20495;-65
2023/09/01 04:33:52;;;;;;;2.97;2.50;;;12.20;99.90;;;;;;5038529;28;20432;-65
2023/09/01 04:36:18;;;;;;;3.63;2.78;;;12.30;99.90;;;;;;5055291;28;20085;-65
2023/09/01 04:38:44;;;;;;;2.78;2.58;;;12.20;99.90;;;;;;5039677;28;20464;-64
2023/09/01 04:41:10;;;;;;;3.10;2.65;;;12.30;99.90;;;;;;5041504;28;20592;-65
2023/09/01 04:43:37;;;;;;;3.60;2.90;;;12.30;99.90;;;;;;5039604;28;20033;-65
2023/09/01 04:46:02;;;;;;;3.45;2.65;;;12.30;99.90;;;;;;5053620;28;20021;-65
2023/09/01 04:48:30;;;;;;;4.05;2.63;;;12.30;99.90;;;;;;5041412;28;20078;-65
2023/09/01 04:50:56;;;;;;;4.60;2.90;;;12.30;99.90;;;;;;5039578;28;20033;-65
2023/09/01 04:53:23;;;;;;;4.75;2.83;;;12.30;99.90;;;;;;5051710;28;20021;-65
2023/09/01 04:55:51;;;;;;;2.90;2.47;;;12.40;99.90;;;;;;5039364;28;20531;-65
2023/09/01 04:58:17;;;;;;;2.80;2.60;;;12.30;99.90;;;;;;5057317;28;20039;-65
2023/09/01 05:00:42;;;;;;;3.30;2.75;;;12.40;99.90;;;;;;5053608;28;20040;-64
2023/09/01 05:03:10;;;;;;;2.70;2.50;;;12.40;99.90;;;;;;5038908;28;20055;-65
2023/09/01 05:05:35;;;;;;;2.83;2.40;;;12.40;99.90;;;;;;5039348;28;20036;-65
2023/09/01 05:08:02;;;;;;;2.60;2.40;;;12.40;99.90;;;;;;5041843;28;20028;-65
2023/09/01 05:10:28;;;;;;;3.00;2.42;;;12.40;99.90;;;;;;5040404;28;20024;-64
2023/09/01 05:12:53;;;;;;;2.75;2.38;;;12.50;99.90;;;;;;5040719;28;20029;-65
2023/09/01 05:15:19;;;;;;;5.95;2.97;;;12.50;99.90;;;;;;5039340;28;20033;-65
2023/09/01 05:17:48;;;;;;;4.97;2.55;;;12.50;99.90;;;;;;5041682;28;20568;-65
2023/09/01 05:20:14;;;;;;;3.78;2.70;;;12.50;99.90;;;;;;5034483;28;20424;-65
2023/09/01 05:22:41;;;;;;;4.95;2.97;;;12.50;99.90;;;;;;5041364;28;20035;-65
2023/09/01 05:25:07;;;;;;;3.97;2.80;;;12.60;99.90;;;;;;5040233;28;20029;-65
2023/09/01 05:27:33;;;;;;;3.45;2.85;;;12.60;99.90;;;;;;5040917;28;20021;-65
2023/09/01 05:29:59;;;;;;;6.38;2.80;;;12.70;99.90;;;;;;5039747;28;20035;-65
2023/09/01 05:32:25;;;;;;;6.10;3.13;;;12.70;99.90;;;;;;5043181;28;20031;-65
2023/09/01 05:34:51;;;;;;;7.50;3.05;;;12.80;99.90;;;;;;5054196;28;20503;-65
2023/09/01 05:37:17;;;;;;;5.72;2.88;;;12.90;99.90;;;;;;5051680;28;20492;-65
2023/09/01 05:39:44;;;;;;;5.50;3.40;;;13.00;99.90;;;;;;5037654;28;20031;-65
2023/09/01 05:42:10;;;;;;;7.40;3.63;;;13.00;99.90;;;;;;5040154;28;20090;-65
2023/09/01 05:44:37;;;;;;;3.83;3.20;;;13.10;99.90;;;;;;5038533;28;20082;-65
2023/09/01 05:47:03;;;;;;;5.20;3.00;;;13.20;99.90;;;;;;5039411;28;20020;-65
2023/09/01 05:49:34;;;;;;;3.90;3.38;;;13.30;99.90;;;;;;5039642;28;20033;-65
2023/09/01 05:52:00;;;;;;;6.05;3.50;;;13.30;99.90;;;;;;5038397;28;20024;-65
2023/09/01 05:54:26;;;;;;;4.95;2.90;;;13.40;99.90;;;;;;5055692;28;20028;-65
2023/09/01 05:56:52;;;;;;;7.60;3.58;;;13.50;99.90;;;;;;5052778;28;20060;-65
2023/09/01 05:59:18;;;;;;;4.10;3.55;;;13.50;99.90;;;;;;5056068;28;20024;-65
2023/09/01 06:01:44;;;;;;;5.40;3.70;;;13.60;99.90;;;;;;5052828;28;20034;-65
2023/09/01 06:04:10;;;;;;;4.65;3.38;;;13.60;99.90;;;;;;5055061;28;20037;-65
2023/09/01 06:06:36;;;;;;;5.72;3.47;;;13.60;99.90;;;;;;5053071;28;20024;-65
2023/09/01 06:09:05;;;;;;;4.40;3.60;;;13.70;99.90;;;;;;5054278;28;20504;-65
2023/09/01 06:11:35;;;;;;;3.55;2.80;;;13.80;99.90;;;;;;5053248;28;20043;-64
2023/09/01 06:14:01;;;;;;;5.05;3.00;;;13.80;99.90;;;;;;5053595;28;20170;-65
2023/09/01 06:16:27;;;;;;;4.88;3.33;;;13.90;99.90;;;;;;5053638;28;20127;-65
2023/09/01 06:18:54;;;;;;;3.53;2.88;;;14.00;99.90;;;;;;5053130;28;20033;-64
2023/09/01 06:21:19;;;;;;;4.97;2.80;;;14.30;99.90;;;;;;5053345;28;20567;-65
2023/09/01 06:23:47;;;;;;;4.05;2.53;;;14.60;99.90;;;;;;5052610;28;20061;-64
2023/09/01 06:26:20;;;;;;;3.85;2.60;;;14.70;99.90;;;;;;5048959;28;20025;-64
2023/09/01 06:28:47;;;;;;;4.00;2.33;;;14.90;99.90;;;;;;5053553;28;20737;-65
2023/09/01 06:31:15;;;;;;;2.55;2.30;;;15.00;99.90;;;;;;5049111;28;20021;-65
2023/09/01 06:33:42;;;;;;;4.63;2.70;;;15.00;99.90;;;;;;5053657;28;20033;-65
2023/09/01 06:36:09;;;;;;;3.30;2.50;;;15.00;99.90;;;;;;5052267;28;20721;-65
2023/09/01 06:38:35;;;;;;;3.25;2.60;;;15.00;99.90;;;;;;5054676;28;20563;-65
2023/09/01 06:41:03;;;;;;;6.18;2.90;;;15.00;99.90;;;;;;5052220;28;20071;-65
2023/09/01 06:43:30;;;;;;;2.67;2.42;;;15.00;99.90;;;;;;5055433;28;20094;-65
2023/09/01 06:45:56;;;;;;;4.22;3.20;;;15.10;99.90;;;;;;5054378;28;20624;-65
2023/09/01 06:48:22;;;;;;;4.45;3.28;;;15.20;99.90;;;;;;5053656;28;20020;-64
2023/09/01 06:50:48;;;;;;;4.65;3.17;;;15.20;99.90;;;;;;5053724;28;20033;-65
2023/09/01 06:53:14;;;;;;;4.05;3.03;;;15.20;99.90;;;;;;5053721;28;20024;-65
2023/09/01 06:55:39;;;;;;;3.92;2.83;;;15.30;99.90;;;;;;5053200;28;20397;-65
2023/09/01 06:58:05;;;;;;;4.07;2.95;;;15.30;99.90;;;;;;5053616;28;20037;-65
2023/09/01 07:00:32;;;;;;;5.43;3.33;;;15.30;99.90;;;;;;5048784;28;20060;-65
2023/09/01 07:02:58;;;;;;;6.13;3.03;;;15.40;99.90;;;;;;5051598;28;20029;-65
2023/09/01 07:05:23;;;;;;;3.97;2.92;;;15.50;99.90;;;;;;5054925;28;20028;-65
2023/09/01 07:07:50;;;;;;;8.40;3.72;;;15.50;99.90;;;;;;5052654;28;20028;-65
2023/09/01 07:10:16;;;;;;;3.35;2.70;;;15.60;99.90;;;;;;5055667;28;20215;-65
2023/09/01 07:12:43;;;;;;;3.80;3.00;;;15.70;99.90;;;;;;5051773;28;20025;-65
2023/09/01 07:15:09;;;;;;;4.85;3.35;;;15.80;99.90;;;;;;5055102;28;20094;-65
2023/09/01 07:17:35;;;;;;;4.43;3.00;;;16.10;99.90;;;;;;5052481;28;20067;-65
2023/09/01 07:20:03;;;;;;;7.55;3.90;;;16.40;99.90;;;;;;5053693;28;20452;-65
2023/09/01 07:22:29;;;;;;;3.47;2.85;;;16.90;99.90;;;;;;5052484;28;20666;-66
2023/09/01 07:24:54;;;;;;;6.07;3.50;;;17.30;99.90;;;;;;5049742;28;20033;-65
2023/09/01 07:27:20;;;;;;;6.30;3.90;;;17.40;99.90;;;;;;5053405;28;20021;-65
2023/09/01 07:29:48;;;;;;;7.50;3.90;;;17.50;99.90;;;;;;5052718;28;20544;-65
2023/09/01 07:32:15;;;;;;;4.82;3.80;;;17.40;99.90;;;;;;5052479;28;20029;-65
2023/09/01 07:34:40;;;;;;;6.07;3.40;;;17.30;99.90;;;;;;5054012;28;20556;-65
2023/09/01 07:37:07;;;;;;;4.70;3.42;;;17.20;99.90;;;;;;5051088;28;20135;-65
2023/09/01 07:39:34;;;;;;;6.10;3.05;;;17.20;99.90;;;;;;5054640;28;20381;-65
2023/09/01 07:41:59;;;;;;;5.93;3.50;;;17.20;99.90;;;;;;5034861;28;20540;-65
2023/09/01 07:44:25;;;;;;;5.00;4.10;;;17.20;99.90;;;;;;5054650;28;20036;-65
2023/09/01 07:46:51;;;;;;;4.85;3.58;;;17.20;99.90;;;;;;5051653;28;20136;-65
2023/09/01 07:49:17;;;;;;;4.20;2.70;;;17.30;99.90;;;;;;5054692;28;20408;-65
2023/09/01 07:51:44;;;;;;;6.93;3.47;;;17.20;99.90;;;;;;5054909;28;20124;-65
2023/09/01 07:54:09;;;;;;;8.60;3.40;;;17.20;99.90;;;;;;5056785;28;20025;-65
2023/09/01 07:56:35;;;;;;;6.90;3.92;;;17.30;99.90;;;;;;5056300;28;20025;-65
2023/09/01 07:59:02;;;;;;;8.65;3.42;;;17.30;99.90;;;;;;5055757;28;20555;-65
2023/09/01 08:01:29;;;;;;;8.18;4.05;;;17.30;99.90;;;;;;5057207;28;20025;-65
2023/09/01 08:03:59;;;;;;;6.97;3.92;;;17.40;99.90;;;;;;5054611;28;20039;-65
2023/09/01 08:06:31;;;;;;;6.50;3.50;;;17.50;99.90;;;;;;5058020;28;20120;-65
2023/09/01 08:08:57;;;;;;;6.40;4.30;;;17.60;99.90;;;;;;5055496;28;20044;-65
2023/09/01 08:11:23;;;;;;;6.18;3.92;;;17.70;99.90;;;;;;5057372;28;20024;-65
2023/09/01 08:13:49;;;;;;;6.15;4.03;;;18.00;99.90;;;;;;5054731;28;20693;-65
2023/09/01 08:16:17;;;;;;;6.80;3.92;;;18.10;99.90;;;;;;5058411;28;20036;-65
2023/09/01 08:18:43;;;;;;;7.70;3.67;;;18.20;99.90;;;;;;5055211;28;20093;-65
2023/09/01 08:21:10;;;;;;;5.60;3.83;;;18.30;99.90;;;;;;5057893;28;20090;-65
2023/09/01 08:23:36;;;;;;;5.85;4.32;;;18.20;99.90;;;;;;5050762;28;20078;-65
2023/09/01 08:26:05;;;;;;;5.57;3.72;;;18.20;99.90;;;;;;5056502;28;20055;-65
2023/09/01 08:28:32;;;;;;;7.40;3.97;;;18.10;99.90;;;;;;5055504;28;20048;-65
2023/09/01 08:31:05;;;;;;;5.78;4.60;;;18.20;99.90;;;;;;5056106;28;20052;-65
2023/09/01 08:33:31;;;;;;;7.55;3.50;;;18.20;99.90;;;;;;5055446;28;20098;-65
2023/09/01 08:36:01;;;;;;;8.30;3.33;;;18.20;99.90;;;;;;5055660;28;20044;-65
2023/09/01 08:38:26;;;;;;;6.95;3.58;;;18.20;99.90;;;;;;5055778;28;20111;-65
2023/09/01 08:41:03;;;;;;;4.43;3.42;;;18.30;99.90;;;;;;5055465;28;20152;-65
2023/09/01 08:43:34;;;;;;;7.22;3.80;;;18.30;99.90;;;;;;5055488;28;20032;-65
2023/09/01 08:46:02;;;;;;;5.13;2.90;;;18.40;99.90;;;;;;5030302;28;20025;-65
2023/09/01 08:48:28;;;;;;;5.60;3.53;;;18.50;99.90;;;;;;5055581;28;20028;-65
2023/09/01 08:50:56;;;;;;;7.38;3.25;;;18.50;99.90;;;;;;5054993;28;20397;-65
2023/09/01 08:53:23;;;;;;;3.72;2.55;;;18.70;99.90;;;;;;5055101;28;20413;-65
2023/09/01 08:55:48;;;;;;;4.65;2.88;;;18.70;99.90;;;;;;5054992;28;20500;-66
2023/09/01 08:58:17;;;;;;;6.38;2.83;;;18.80;99.90;;;;;;5055075;28;20037;-65
2023/09/01 09:00:43;;;;;;;3.33;2.50;;;19.00;99.90;;;;;;5054953;28;20037;-65
2023/09/01 09:03:12;;;;;;;6.82;3.33;;;19.40;99.90;;;;;;5053282;28;20037;-65
2023/09/01 09:05:38;;;;;;;6.13;2.60;;;19.70;99.40;;;;;;5055806;28;20032;-65
2023/09/01 09:08:07;;;;;;;5.45;2.67;;;19.70;99.10;;;;;;5052969;28;20073;-65
2023/09/01 09:10:38;;;;;;;6.43;2.85;;;19.80;99.60;;;;;;5056563;28;20032;-65
2023/09/01 09:13:26;;;;;;;4.53;2.70;;;19.70;99.60;;;;;;5051863;28;20442;-65
2023/09/01 09:16:04;;;;;;;4.57;2.60;;;19.80;98.90;;;;;;5054319;28;20087;-65
2023/09/01 09:18:30;;;;;;;3.97;1.70;;;19.80;98.50;;;;;;5054503;28;20388;-65
2023/09/01 09:20:56;;;;;;;4.65;2.17;;;19.80;99.40;;;;;;5054136;28;20033;-65
2023/09/01 09:23:21;;;;;;;9.63;3.08;;;19.80;98.50;;;;;;5055104;28;20440;-65
2023/09/01 09:25:49;;;;;;;4.70;2.00;;;19.80;98.20;;;;;;5053633;28;20044;-65
2023/09/01 09:28:18;;;;;;;3.78;2.10;;;19.80;98.00;;;;;;5052113;28;20054;-65
2023/09/01 09:30:53;;;;;;;5.20;1.52;;;19.90;98.80;;;;;;5052389;28;20029;-65
2023/09/01 09:33:27;;;;;;;8.77;2.40;;;19.90;98.70;;;;;;5052572;28;20466;-65
2023/09/01 09:35:53;;;;;;;4.82;1.63;;;20.00;97.60;;;;;;5050784;28;20048;-65
2023/09/01 09:38:19;;;;;;;2.75;1.35;;;20.00;98.10;;;;;;5055900;28;20040;-65
2023/09/01 09:40:59;;;;;;;2.67;1.45;;;20.10;97.90;;;;;;5053448;28;20053;-65
2023/09/01 09:43:27;;;;;;;6.90;1.92;;;20.20;98.20;;;;;;5051356;28;20037;-65
2023/09/01 09:45:54;;;;;;;3.08;1.42;;;20.20;98.30;;;;;;5054009;28;20037;-65
2023/09/01 09:48:20;;;;;;;4.13;1.60;;;20.20;97.70;;;;;;5055929;28;20135;-65
2023/09/01 09:50:50;;;;;;;3.35;1.50;;;20.30;97.20;;;;;;5053073;28;20125;-65
2023/09/01 09:53:21;;;;;;;3.85;1.42;;;20.40;96.30;;;;;;5051606;28;20035;-65
2023/09/01 09:55:49;;;;;;;2.17;1.52;;;20.40;96.90;;;;;;5053285;28;20175;-65
2023/09/01 09:58:17;;;;;;;3.10;1.60;;;20.50;97.50;;;;;;5056519;28;20028;-65
2023/09/01 10:00:53;;;;;;;6.68;2.00;;;20.60;96.60;;;;;;5053044;28;20037;-65
2023/09/01 10:03:23;;;;;;;;;;;20.70;95.50;;;;;;5051706;28;20079;-65
2023/09/01 10:05:50;;;;;;;2.03;1.58;;;20.80;95.40;;;;;;5052657;28;19999;-65
2023/09/01 10:08:19;;;;;;;4.13;1.52;;;20.90;95.50;;;;;;5056176;28;20020;-65
2023/09/01 10:10:45;;;;;;;4.95;1.48;;;21.10;94.80;;;;;;5053086;28;20036;-65
2023/09/01 10:13:12;;;;;;;3.58;1.10;;;21.10;94.90;;;;;;5054918;28;20377;-65
2023/09/01 10:15:38;;;;;;;2.28;1.05;;;21.20;94.90;;;;;;5052163;28;20032;-65
2023/09/01 10:18:08;;;;;;;2.47;1.17;;;21.20;94.20;;;;;;5055662;28;20040;-65
2023/09/01 10:20:36;;;;;;;4.20;1.67;;;21.20;95.00;;;;;;5048918;28;20040;-65
2023/09/01 10:23:04;;;;;;;4.28;1.70;;;21.20;93.50;;;;;;5052423;28;20446;-65
2023/09/01 10:25:31;;;;;;;3.08;1.60;;;21.30;93.70;;;;;;5052923;28;20687;-65
2023/09/01 10:28:05;;;;;;;4.40;1.55;;;21.40;93.80;;;;;;5053916;28;20040;-65
2023/09/01 10:30:33;;;;;;;3.40;2.25;;;21.50;93.30;;;;;;5052822;28;20608;-65
2023/09/01 10:33:16;;;;;;;3.10;1.60;;;21.50;93.10;;;;;;5054099;28;20024;-65
2023/09/01 10:35:44;;;;;;;5.20;2.10;;;21.50;93.00;;;;;;5049169;28;20484;-65
2023/09/01 10:38:16;;;;;;;9.57;2.40;;;21.60;92.90;;;;;;5055832;28;20754;-65
2023/09/01 10:40:52;;;;;;;4.15;1.83;;;21.60;91.30;;;;;;5051942;28;20468;-65
2023/09/01 10:43:33;;;;;;;4.85;1.85;;;21.50;92.10;;;;;;5055417;28;20032;-65
2023/09/01 10:46:15;;;;;;;2.40;1.48;;;21.60;92.30;;;;;;5053269;28;20036;-65
2023/09/01 10:49:00;;;;;;;3.92;2.03;;;21.60;92.00;;;;;;5053068;28;20033;-65
2023/09/01 10:51:28;;;;;;;2.63;1.30;;;21.70;92.00;;;;;;5052811;28;20031;-65
2023/09/01 10:53:57;;;;;;;3.15;1.60;;;21.80;92.30;;;;;;5053821;28;20039;-65
2023/09/01 10:56:24;;;;;;;5.00;1.70;;;21.90;92.20;;;;;;5053146;28;20560;-65
2023/09/01 10:58:52;;;;;;;2.95;1.70;;;21.90;91.10;;;;;;5053647;28;20140;-65
2023/09/01 11:01:32;;;;;;;4.00;1.83;;;22.00;90.30;;;;;;5048561;28;20025;-65
2023/09/01 11:04:14;;;;;;;3.55;1.77;;;21.90;90.40;;;;;;5053531;28;20071;-66
2023/09/01 11:07:12;;;;;;;3.28;1.83;;;21.90;91.00;;;;;;5049917;28;20036;-65
2023/09/01 11:09:44;;;;;;;4.68;1.95;;;21.90;91.30;;;;;;5004042;28;20037;-65
2023/09/01 11:12:11;;;;;;;5.10;1.80;;;22.00;90.20;;;;;;5054473;28;20033;-65
2023/09/01 11:14:55;;;;;;;4.00;1.48;;;22.10;88.50;;;;;;5053006;28;20036;-65
2023/09/01 11:17:33;;;;;;;2.45;1.40;;;22.10;89.30;;;;;;5054535;28;20552;-65
2023/09/01 11:19:59;;;;;;;6.60;2.58;;;22.20;90.40;;;;;;5051947;28;20482;-65
2023/09/01 11:22:25;;;;;;;6.65;2.08;;;22.20;89.10;;;;;;5055029;28;20128;-65
2023/09/01 11:24:51;;;;;;;2.67;1.50;;;22.20;90.10;;;;;;5053826;28;20918;-65
2023/09/01 11:27:17;;;;;;;4.10;1.75;;;22.20;89.50;;;;;;5058973;28;20472;-65
2023/09/01 11:29:49;;;;;;;3.83;1.65;;;22.20;90.10;;;;;;5055674;28;20032;-65
2023/09/01 11:32:27;;;;;;;6.15;2.05;;;22.20;90.20;;;;;;5053904;28;20035;-65
2023/09/01 11:34:53;;;;;;;3.97;1.67;;;22.20;90.40;;;;;;5053745;28;20486;-65
2023/09/01 11:37:36;;;;;;;5.22;2.33;;;22.30;90.40;;;;;;5059649;28;20059;-65
2023/09/01 11:40:05;;;;;;;4.82;1.98;;;22.40;86.40;;;;;;5054559;28;20108;-65
2023/09/01 11:42:33;;;;;;;6.57;2.15;;;22.40;88.30;;;;;;5048539;28;20064;-65
2023/09/01 11:44:59;;;;;;;4.03;1.65;;;22.50;89.10;;;;;;5038170;28;20021;-66
2023/09/01 11:47:27;;;;;;;2.97;1.40;;;22.50;87.60;;;;;;5059418;28;20385;-66
2023/09/01 11:49:53;;;;;;;5.13;2.05;;;22.50;87.20;;;;;;5055352;28;20029;-65
2023/09/01 11:52:19;;;;;;;2.25;1.67;;;22.50;87.40;;;;;;5057959;28;20039;-65
2023/09/01 11:54:44;;;;;;;3.65;1.67;;;22.40;88.00;;;;;;5055106;28;20067;-65
2023/09/01 11:57:12;;;;;;;3.92;1.95;;;22.40;89.60;;;;;;5057277;28;20052;-65
2023/09/01 11:59:47;;;;;;;3.17;1.33;;;22.50;87.20;;;;;;5055857;28;20041;-65
2023/09/01 12:02:18;;;;;;;4.13;1.77;;;22.50;88.30;;;;;;5056575;28;20048;-65
2023/09/01 12:04:50;;;;;;;3.25;1.60;;;22.60;89.90;;;;;;5055512;28;20319;-65
2023/09/01 12:07:27;;;;;;;3.95;1.70;;;22.60;89.20;;;;;;5056619;28;20071;-65
2023/09/01 12:09:54;;;;;;;4.85;1.70;;;22.70;86.30;;;;;;5042415;28;20382;-65
2023/09/01 12:12:20;;;;;;;2.78;1.52;;;22.70;86.70;;;;;;5056161;28;20028;-65
2023/09/01 12:14:46;;;;;;;4.90;2.10;;;22.80;86.40;;;;;;5055455;28;20515;-65
2023/09/01 12:17:20;;;;;;;3.63;1.83;;;22.80;85.90;;;;;;5056157;28;20035;-65
2023/09/01 12:19:51;;;;;;;4.53;1.90;;;22.80;85.90;;;;;;5055481;28;20513;-65
2023/09/01 12:22:18;;;;;;;4.35;1.73;;;22.80;86.50;;;;;;5056468;28;20036;-65
2023/09/01 12:24:54;;;;;;;5.68;1.80;;;22.80;85.80;;;;;;5055523;28;20029;-65
2023/09/01 12:27:20;;;;;;;5.57;1.67;;;22.70;87.00;;;;;;5056279;28;20020;-66
2023/09/01 12:29:46;;;;;;;6.07;1.92;;;22.70;88.00;;;;;;5054963;28;20041;-65
2023/09/01 12:32:13;;;;;;;2.33;1.40;;;22.80;87.30;;;;;;5055606;28;20075;-65
2023/09/01 12:34:40;;;;;;;5.07;2.03;;;22.80;85.70;;;;;;5055304;28;20029;-65
2023/09/01 12:37:06;;;;;;;4.22;1.85;;;22.80;87.60;;;;;;5051038;28;20455;-66
2023/09/01 12:39:32;;;;;;;4.45;2.20;;;22.70;86.10;;;;;;5056150;28;20043;-65
2023/09/01 12:41:58;;;;;;;4.30;1.95;;;22.80;87.30;;;;;;5054131;28;20028;-65
2023/09/01 12:44:24;;;;;;;6.05;1.80;;;22.90;86.70;;;;;;5041887;28;20036;-65
2023/09/01 12:46:52;;;;;;;3.78;1.80;;;22.80;85.70;;;;;;5054203;28;20032;-65
2023/09/01 12:49:18;;;;;;;2.58;1.45;;;22.80;85.60;;;;;;5057552;28;20028;-66
2023/09/01 12:51:44;;;;;;;7.00;2.03;;;22.80;87.70;;;;;;5053878;28;20031;-65